Time;durP1;ratioP1;P1;durP2;ratioP2;P2;SDS_P1;SDS_P2;PMS_P1;PMS_P2;Temp;Humidity;BMP_temperature;BMP_pressure;BME280_temperature;BME280_humidity;BME280_pressure;Samples;Min_cycle;Max_cycle;Signal;HPM_P1;HPM_P2
2021/12/08 00:02:19;;;;;;;;;5.50;1.25;;;;;6.97;96.32;98912.41;5036548;28;45551;-73
2021/12/08 00:04:44;;;;;;;;;3.00;1.75;;;;;7.04;96.53;98923.50;5036243;28;45311;-75
2021/12/08 00:07:10;;;;;;;;;2.50;1.00;;;;;7.01;96.91;98936.72;5035953;28;45336;-75
2021/12/08 00:14:54;;;;;;;;;3.25;1.75;;;;;6.81;97.41;98938.28;5036795;28;45405;-76
2021/12/08 00:17:20;;;;;;;;;3.50;1.75;;;;;6.73;96.95;98929.88;5037577;28;45453;-78
2021/12/08 00:19:45;;;;;;;;;2.75;1.75;;;;;6.78;96.74;98951.47;5037535;28;45260;-78
2021/12/08 00:22:11;;;;;;;;;3.00;2.00;;;;;6.72;96.41;98946.47;5037134;28;45734;-77
2021/12/08 00:24:36;;;;;;;;;1.75;1.75;;;;;6.77;96.15;98960.25;5037677;28;45567;-76
2021/12/08 00:27:02;;;;;;;;;1.00;1.00;;;;;6.72;95.86;98946.47;5037031;28;47071;-74
2021/12/08 00:29:28;;;;;;;;;3.25;1.25;;;;;6.79;95.68;98950.56;5037019;28;45338;-74
2021/12/08 00:31:53;;;;;;;;;2.25;2.00;;;;;6.78;95.67;98951.47;5037048;28;45373;-76
2021/12/08 00:34:19;;;;;;;;;2.00;2.00;;;;;6.78;95.41;98954.97;5037600;28;45384;-75
2021/12/08 00:36:48;;;;;;;;;3.00;1.00;;;;;6.75;95.59;98955.09;5037295;28;45439;-77
2021/12/08 00:39:14;;;;;;;;;1.00;0.00;;;;;6.79;95.94;98953.19;5037218;28;45513;-78
2021/12/08 00:41:41;;;;;;;;;1.50;1.50;;;;;6.87;95.35;98963.38;5036551;28;45243;-73
2021/12/08 00:44:07;;;;;;;;;1.25;0.00;;;;;6.89;94.87;98964.19;5037642;28;45321;-73
2021/12/08 00:46:33;;;;;;;;;1.00;1.00;;;;;6.89;94.60;98962.41;5036674;28;46162;-73
2021/12/08 00:48:59;;;;;;;;;1.75;1.00;;;;;6.90;94.15;98965.91;5037435;28;45429;-74
2021/12/08 00:51:25;;;;;;;;;1.00;1.00;;;;;6.96;93.27;98976.97;5037355;28;45440;-75
2021/12/08 00:53:50;;;;;;;;;1.00;1.00;;;;;6.92;93.34;98972.75;5037418;28;46139;-76
2021/12/08 00:56:16;;;;;;;;;2.75;1.50;;;;;7.01;92.85;98983.81;5037135;28;45552;-77
2021/12/08 00:58:42;;;;;;;;;1.00;1.00;;;;;6.91;92.28;98971.06;5036985;28;45381;-77
2021/12/08 01:01:08;;;;;;;;;1.75;0.00;;;;;6.96;91.10;98974.34;5037033;28;45368;-76
2021/12/08 01:03:35;;;;;;;;;1.50;1.00;;;;;7.02;89.89;98977.69;5037355;28;45205;-76
2021/12/08 01:06:02;;;;;;;;;3.50;1.00;;;;;6.93;89.88;98963.16;5036969;28;45704;-76
2021/12/08 01:08:30;;;;;;;;;0.00;0.00;;;;;6.86;89.35;98957.28;5037268;28;45464;-76
2021/12/08 01:10:59;;;;;;;;;2.00;0.00;;;;;7.07;89.12;98980.97;5036409;28;45243;-77
2021/12/08 01:13:25;;;;;;;;;1.00;1.00;;;;;7.08;88.88;98983.50;5036961;28;45228;-76
2021/12/08 01:15:54;;;;;;;;;1.25;0.25;;;;;7.07;88.87;98976.59;5036838;28;46334;-77
2021/12/08 01:18:24;;;;;;;;;0.00;0.00;;;;;7.09;88.52;98985.22;5036558;28;45484;-73
2021/12/08 01:20:51;;;;;;;;;2.75;0.25;;;;;7.06;87.59;98982.72;5036401;28;45289;-73
2021/12/08 01:23:18;;;;;;;;;4.00;0.50;;;;;7.08;87.80;98982.66;5037167;28;45463;-74
2021/12/08 01:25:43;;;;;;;;;0.75;0.50;;;;;7.05;88.13;98985.41;5036475;28;45683;-72
2021/12/08 01:28:09;;;;;;;;;1.00;1.00;;;;;6.96;88.78;98968.28;5036523;28;45520;-74
2021/12/08 01:30:38;;;;;;;;;0.75;0.00;;;;;7.07;86.82;98980.97;5035968;28;45269;-73
2021/12/08 01:33:04;;;;;;;;;2.25;1.00;;;;;7.06;86.06;98974.03;5036971;28;45313;-74
2021/12/08 01:35:30;;;;;;;;;0.75;0.75;;;;;6.96;86.90;98974.34;5036487;28;45436;-74
2021/12/08 01:37:56;;;;;;;;;0.00;0.00;;;;;6.95;87.33;98972.63;5036617;28;45535;-74
2021/12/08 01:40:22;;;;;;;;;2.00;0.00;;;;;6.95;86.92;98977.88;5036767;28;45228;-73
2021/12/08 01:42:51;;;;;;;;;2.25;0.75;;;;;6.91;87.24;98986.78;5036873;28;45417;-72
2021/12/08 01:48:09;;;;;;;;;1.60;1.00;;;;;6.92;86.64;98995.47;5036461;28;45370;-72
2021/12/08 01:50:36;;;;;;;;;1.00;1.00;;;;;6.88;87.10;98997.31;5036434;28;45338;-73
2021/12/08 01:53:05;;;;;;;;;0.00;0.00;;;;;6.93;86.86;98992.78;5039437;28;45286;-74
2021/12/08 01:55:31;;;;;;;;;0.00;0.00;;;;;6.91;86.59;99005.09;5039259;28;46748;-75
2021/12/08 01:57:57;;;;;;;;;3.25;0.75;;;;;7.06;83.67;99005.44;5040152;28;45818;-73
2021/12/08 02:00:32;;;;;;;;;0.00;0.00;;;;;6.96;84.24;99005.75;5040144;28;45375;-74
2021/12/08 02:02:58;;;;;;;;;1.00;0.00;;;;;6.90;85.15;99008.59;5040272;28;45449;-74
2021/12/08 02:05:24;;;;;;;;;3.00;1.00;;;;;6.86;84.62;99000.94;5039165;28;45447;-73
2021/12/08 02:07:50;;;;;;;;;0.00;0.00;;;;;6.84;85.05;99014.06;5039475;28;45576;-73
2021/12/08 02:10:16;;;;;;;;;0.00;0.00;;;;;6.72;86.13;99004.00;5039544;28;45549;-77
2021/12/08 02:12:41;;;;;;;;;3.50;1.00;;;;;6.67;86.41;99003.34;5039680;28;45373;-77
2021/12/08 02:15:13;;;;;;;;;0.00;0.00;;;;;6.48;86.19;98995.25;5039479;28;46285;-76
2021/12/08 02:17:39;;;;;;;;;0.00;0.00;;;;;6.58;86.26;99015.81;5039729;28;45406;-76
2021/12/08 02:20:07;;;;;;;;;2.00;0.00;;;;;6.63;87.30;99033.97;5039679;28;45402;-76
2021/12/08 02:22:32;;;;;;;;;0.00;0.00;;;;;6.57;87.21;99029.78;5039430;28;45447;-76
2021/12/08 02:24:58;;;;;;;;;0.00;0.00;;;;;6.54;87.35;99044.75;5039153;28;46657;-76
2021/12/08 02:27:23;;;;;;;;;2.00;1.00;;;;;6.21;86.73;98993.53;5039390;28;45360;-77
2021/12/08 02:29:56;;;;;;;;;1.00;0.00;;;;;6.40;86.38;99032.13;5039658;28;45468;-75
2021/12/08 02:48:27;;;;;;;;;0.80;0.00;;;;;6.09;86.86;99030.53;5017155;28;45488;-76
2021/12/08 02:50:53;;;;;;;;;0.00;0.00;;;;;5.82;86.50;98991.25;5016899;28;45413;-76
2021/12/08 02:53:18;;;;;;;;;1.25;1.00;;;;;5.99;86.69;99010.81;5005442;28;45330;-76
2021/12/08 02:55:45;;;;;;;;;1.75;0.00;;;;;6.07;86.45;99024.47;4996779;28;45760;-76
2021/12/08 02:58:10;;;;;;;;;2.00;0.00;;;;;5.98;86.18;99012.56;4997571;28;45394;-76
2021/12/08 03:00:43;;;;;;;;;0.25;0.25;;;;;6.05;85.61;99023.69;4997224;28;45438;-77
2021/12/08 03:03:08;;;;;;;;;0.50;0.00;;;;;5.82;85.01;98993.88;4996417;28;45382;-75
2021/12/08 03:05:34;;;;;;;;;0.50;0.50;;;;;5.95;86.62;99033.53;4996589;28;45445;-76
2021/12/08 03:08:00;;;;;;;;;6.50;1.00;;;;;5.83;87.11;99013.03;4997028;28;45410;-77
2021/12/08 03:10:30;;;;;;;;;0.00;0.00;;;;;5.78;87.33;99007.97;4996715;28;45435;-76
2021/12/08 03:12:55;;;;;;;;;1.75;1.00;;;;;5.79;87.19;99017.47;4997015;28;45522;-76
2021/12/08 03:15:21;;;;;;;;;1.00;0.00;;;;;5.84;87.05;99026.03;4995538;28;45512;-76
2021/12/08 03:17:47;;;;;;;;;2.00;2.00;;;;;5.81;86.57;99027.88;4996664;28;45308;-76
2021/12/08 03:20:16;;;;;;;;;2.00;1.00;;;;;5.78;87.01;99034.06;4996951;28;45431;-76
2021/12/08 03:22:46;;;;;;;;;3.00;2.00;;;;;5.75;87.25;99028.91;4996898;28;45453;-76
2021/12/08 03:25:16;;;;;;;;;1.25;0.75;;;;;5.74;87.58;99038.53;5005524;28;46395;-76
2021/12/08 03:27:50;;;;;;;;;2.25;0.00;;;;;5.77;86.68;99034.97;5037960;28;45462;-76
2021/12/08 03:30:21;;;;;;;;;0.25;0.25;;;;;5.61;86.71;99015.47;5038299;28;45504;-76
2021/12/08 03:32:47;;;;;;;;;2.00;1.00;;;;;5.62;87.04;99019.75;5038669;28;45393;-76
2021/12/08 03:35:16;;;;;;;;;3.00;1.00;;;;;5.64;88.07;99017.97;5037968;28;46704;-75
2021/12/08 03:37:46;;;;;;;;;4.25;1.00;;;;;5.63;87.75;99019.72;5038306;28;45341;-76
2021/12/08 03:40:22;;;;;;;;;2.00;0.25;;;;;5.68;86.02;99020.44;5038380;28;45217;-75
2021/12/08 03:42:51;;;;;;;;;3.00;1.00;;;;;5.68;85.46;99009.16;5018557;28;45282;-75
2021/12/08 03:45:34;;;;;;;;;2.25;1.00;;;;;5.64;86.04;99021.44;5018165;28;45509;-76
2021/12/08 03:48:05;;;;;;;;;1.75;0.00;;;;;5.58;86.19;99017.25;5018214;28;45303;-75
2021/12/08 03:50:34;;;;;;;;;1.00;1.00;;;;;5.60;86.22;99016.34;5018303;28;45279;-75
2021/12/08 03:53:00;;;;;;;;;1.00;1.00;;;;;5.54;86.03;99013.00;5027450;28;45504;-76
2021/12/08 03:55:26;;;;;;;;;2.75;0.50;;;;;5.50;85.76;99006.16;5020064;28;45466;-76
2021/12/08 03:57:52;;;;;;;;;2.00;0.00;;;;;5.58;85.42;99006.81;5037903;28;45452;-76
2021/12/08 04:00:22;;;;;;;;;0.00;0.00;;;;;5.60;86.06;99013.75;5037833;28;45487;-75
2021/12/08 04:02:48;;;;;;;;;2.00;0.75;;;;;5.32;85.88;98975.44;5038208;28;45337;-75
2021/12/08 04:05:20;;;;;;;;;0.00;0.00;;;;;5.55;86.24;99021.72;5037758;28;46138;-75
2021/12/08 04:07:48;;;;;;;;;0.75;0.75;;;;;5.53;87.44;99011.31;5037960;28;45315;-75
2021/12/08 04:10:18;;;;;;;;;1.00;1.00;;;;;5.29;87.55;98981.59;5037394;28;45532;-76
2021/12/08 04:12:52;;;;;;;;;1.50;0.00;;;;;5.49;86.91;99008.84;5037927;28;45252;-76
2021/12/08 04:15:19;;;;;;;;;5.50;3.00;;;;;5.51;87.58;99034.00;5037523;28;45484;-75
2021/12/08 04:17:47;;;;;;;;;1.50;0.00;;;;;5.50;87.37;99026.22;5037460;28;45188;-75
2021/12/08 04:20:22;;;;;;;;;2.00;0.50;;;;;5.44;88.32;99024.63;5037956;28;45330;-75
2021/12/08 04:22:51;;;;;;;;;0.00;0.00;;;;;5.47;87.82;99028.91;5037606;28;45443;-75
2021/12/08 04:25:21;;;;;;;;;1.75;0.00;;;;;5.42;87.44;99021.22;5037419;28;45473;-75
2021/12/08 04:27:48;;;;;;;;;2.00;0.00;;;;;5.34;87.58;99005.78;5037636;28;45291;-72
2021/12/08 04:30:25;;;;;;;;;0.25;0.00;;;;;5.44;87.00;99022.03;5037807;28;45463;-73
2021/12/08 04:32:51;;;;;;;;;2.25;0.25;;;;;5.40;87.77;99030.84;5037323;28;45400;-74
2021/12/08 04:35:19;;;;;;;;;0.00;0.00;;;;;5.41;87.73;99043.84;5036866;28;46671;-76
2021/12/08 04:37:49;;;;;;;;;0.00;0.00;;;;;5.39;87.49;99047.44;5037340;28;45160;-76
2021/12/08 04:40:38;;;;;;;;;3.50;1.00;;;;;5.36;88.52;99044.91;5037552;28;45883;-73
2021/12/08 04:46:23;;;;;;;;;0.00;0.00;;;;;5.37;89.20;99068.34;5037127;28;45369;-74
2021/12/08 04:54:00;;;;;;;;;0.25;0.00;;;;;5.47;89.43;99073.28;5037566;28;45404;-73
2021/12/08 05:07:28;;;;;;;;;1.75;0.00;;;;;5.57;87.89;99059.06;5036728;28;45908;-73
2021/12/08 05:09:55;;;;;;;;;0.00;0.00;;;;;5.53;88.68;99068.75;5036679;28;45369;-73
2021/12/08 05:12:25;;;;;;;;;1.00;0.00;;;;;5.45;87.74;99055.06;5036814;28;45314;-73
2021/12/08 05:14:54;;;;;;;;;0.00;0.00;;;;;5.47;88.52;99073.28;5037350;28;45391;-72
2021/12/08 05:17:32;;;;;;;;;0.00;0.00;;;;;5.39;88.64;99070.91;5036816;28;45412;-73
2021/12/08 05:20:05;;;;;;;;;1.00;0.00;;;;;5.37;88.52;99067.47;5037171;28;45499;-72
2021/12/08 05:22:35;;;;;;;;;0.00;0.00;;;;;5.40;89.39;99083.91;5037027;28;45472;-72
2021/12/08 05:25:05;;;;;;;;;2.00;0.00;;;;;5.33;88.88;99071.06;5036482;28;45575;-75
2021/12/08 05:27:39;;;;;;;;;0.00;0.00;;;;;5.35;89.07;99087.56;5038275;28;46913;-74
2021/12/08 05:30:12;;;;;;;;;0.00;0.00;;;;;5.27;89.68;99074.72;5040636;28;45231;-76
2021/12/08 05:32:39;;;;;;;;;0.50;0.00;;;;;5.36;89.06;99097.09;5039484;28;45276;-74
2021/12/08 05:35:08;;;;;;;;;0.00;0.00;;;;;5.38;89.29;99116.16;5040442;28;45267;-77
2021/12/08 05:37:34;;;;;;;;;0.00;0.00;;;;;5.38;89.09;99108.34;5040176;28;45368;-75
2021/12/08 05:39:59;;;;;;;;;0.00;0.00;;;;;5.40;88.77;99120.47;5040259;28;45408;-75
2021/12/08 05:42:32;;;;;;;;;1.00;0.00;;;;;5.38;88.57;99121.38;5040293;28;45411;-75
2021/12/08 05:45:09;;;;;;;;;1.50;0.00;;;;;5.36;88.49;99117.97;5040455;28;45372;-76
2021/12/08 05:47:35;;;;;;;;;3.00;0.00;;;;;5.47;87.83;99141.16;5039323;28;46440;-75
2021/12/08 05:50:01;;;;;;;;;4.00;2.00;;;;;5.39;88.39;99125.72;5039958;28;45351;-75
2021/12/08 05:52:27;;;;;;;;;3.25;0.00;;;;;5.38;88.90;99126.59;5040175;28;45444;-75
2021/12/08 05:54:53;;;;;;;;;0.00;0.00;;;;;5.40;88.51;99133.50;5040164;28;45406;-75
2021/12/08 05:57:21;;;;;;;;;2.50;0.50;;;;;5.40;88.81;99133.50;5039803;28;46089;-75
2021/12/08 05:59:49;;;;;;;;;1.25;1.25;;;;;5.38;88.14;99131.81;5039783;28;45187;-74
2021/12/08 06:02:20;;;;;;;;;1.75;1.75;;;;;5.39;87.83;99133.56;5039497;28;45345;-73
2021/12/08 06:04:46;;;;;;;;;2.25;2.00;;;;;5.35;87.75;99129.31;5040070;28;45219;-73
2021/12/08 06:07:13;;;;;;;;;2.75;1.00;;;;;5.30;88.24;99115.53;5039688;28;46602;-73
2021/12/08 06:09:39;;;;;;;;;2.00;2.00;;;;;5.20;88.69;99114.94;5038708;28;46628;-73
2021/12/08 06:12:07;;;;;;;;;2.00;0.75;;;;;5.23;88.42;99104.41;5039655;28;45507;-76
2021/12/08 06:14:33;;;;;;;;;2.00;0.25;;;;;5.01;88.43;99081.50;5040096;28;45246;-74
2021/12/08 06:17:11;;;;;;;;;1.25;0.00;;;;;5.26;88.25;99127.81;5038992;28;45471;-76
2021/12/08 06:19:40;;;;;;;;;0.00;0.00;;;;;4.96;88.46;99087.75;5039830;28;45291;-74
2021/12/08 06:22:07;;;;;;;;;1.75;1.00;;;;;5.21;89.35;99146.19;5039210;28;45463;-75
2021/12/08 06:24:33;;;;;;;;;0.75;0.00;;;;;5.22;89.29;99153.13;5039569;28;45531;-73
2021/12/08 06:26:59;;;;;;;;;1.00;1.00;;;;;5.09;89.30;99127.41;5020920;28;46095;-72
2021/12/08 06:29:24;;;;;;;;;3.00;1.00;;;;;5.23;88.87;99154.84;5039182;28;45168;-72
2021/12/08 06:31:53;;;;;;;;;2.75;0.25;;;;;5.18;88.69;99156.69;5038693;28;45397;-72
2021/12/08 06:34:21;;;;;;;;;2.00;0.75;;;;;5.18;88.74;99163.69;5040596;28;45543;-71
2021/12/08 06:36:56;;;;;;;;;1.00;1.00;;;;;5.15;89.20;99180.25;5039155;28;46708;-71
2021/12/08 06:39:47;;;;;;;;;0.50;0.50;;;;;5.15;88.93;99180.25;5037783;28;45393;-71
2021/12/08 06:42:17;;;;;;;;;1.50;0.50;;;;;4.86;88.28;99134.91;5039276;28;45465;-70
2021/12/08 06:44:46;;;;;;;;;0.00;0.00;;;;;5.08;89.07;99180.47;5039598;28;45472;-72
2021/12/08 06:47:16;;;;;;;;;1.75;1.00;;;;;4.98;88.52;99167.69;5038573;28;45534;-71
2021/12/08 06:49:45;;;;;;;;;1.00;0.00;;;;;5.08;88.02;99181.31;5037806;28;45389;-71
2021/12/08 06:52:18;;;;;;;;;1.00;1.00;;;;;4.94;88.10;99159.94;5038641;28;45372;-72
2021/12/08 06:54:57;;;;;;;;;39.67;34.00;;;;;5.03;88.15;99185.81;5039083;28;45664;-71
2021/12/08 06:57:31;;;;;;;;;6.25;2.25;;;;;4.97;89.08;99192.03;5038612;28;46141;-71
2021/12/08 07:00:00;;;;;;;;;1.00;1.00;;;;;4.96;89.16;99190.31;5038453;28;45169;-72
2021/12/08 07:02:53;;;;;;;;;1.00;1.00;;;;;5.02;88.58;99204.94;5039086;28;45398;-71
2021/12/08 07:05:32;;;;;;;;;1.00;1.00;;;;;4.97;88.69;99199.84;5038974;28;45380;-71
2021/12/08 07:08:06;;;;;;;;;4.00;3.00;;;;;4.97;89.35;99188.56;5038463;28;47559;-71
2021/12/08 07:10:37;;;;;;;;;4.50;2.75;;;;;5.05;88.90;99199.66;5037849;28;45346;-73
2021/12/08 07:13:07;;;;;;;;;7.75;3.50;;;;;5.10;89.10;99205.63;5037742;28;45650;-72
2021/12/08 07:15:36;;;;;;;;;1.75;1.00;;;;;5.14;89.27;99207.28;5038653;28;45398;-72
2021/12/08 07:18:10;;;;;;;;;3.00;1.00;;;;;5.10;88.74;99189.97;5038299;28;45232;-75
2021/12/08 07:20:43;;;;;;;;;1.00;1.00;;;;;5.12;87.44;99195.16;5038643;28;45211;-71
2021/12/08 07:23:12;;;;;;;;;3.25;1.75;;;;;5.13;87.76;99215.13;5038646;28;45350;-70
2021/12/08 07:25:38;;;;;;;;;6.00;3.00;;;;;5.03;87.78;99198.84;5038285;28;45551;-71
2021/12/08 07:28:04;;;;;;;;;0.00;0.00;;;;;5.02;87.77;99210.16;5038077;28;45972;-71
2021/12/08 07:30:35;;;;;;;;;2.75;0.00;;;;;4.99;88.93;99218.06;5038509;28;45393;-71
2021/12/08 07:33:01;;;;;;;;;1.00;0.75;;;;;4.94;88.32;99214.72;5038474;28;45366;-71
2021/12/08 07:35:42;;;;;;;;;0.00;0.00;;;;;4.91;87.38;99215.66;5038527;28;45489;-74
2021/12/08 07:38:11;;;;;;;;;4.00;1.00;;;;;4.91;87.67;99222.63;5038189;28;46115;-71
2021/12/08 07:40:43;;;;;;;;;2.00;0.75;;;;;4.88;87.25;99213.97;5038215;28;45278;-71
2021/12/08 07:43:14;;;;;;;;;6.25;4.00;;;;;4.96;88.24;99241.63;5037803;28;45441;-71
2021/12/08 07:45:48;;;;;;;;;3.00;1.00;;;;;4.94;89.55;99238.19;5038518;28;45345;-74
2021/12/08 07:48:26;;;;;;;;;2.50;1.00;;;;;4.96;88.35;99239.88;5038218;28;46543;-71
2021/12/08 07:50:57;;;;;;;;;3.00;1.75;;;;;4.95;87.92;99227.75;5037174;28;45508;-71
2021/12/08 07:53:25;;;;;;;;;1.50;0.50;;;;;4.89;87.84;99217.44;5038341;28;45454;-71
2021/12/08 07:55:58;;;;;;;;;1.50;0.25;;;;;4.94;88.11;99235.56;5038003;28;45595;-71
2021/12/08 07:58:24;;;;;;;;;1.00;1.00;;;;;4.80;88.38;99215.91;5037894;28;45312;-72
2021/12/08 08:01:14;;;;;;;;;1.00;1.00;;;;;4.99;88.12;99238.94;5037714;28;45461;-71
2021/12/08 08:03:40;;;;;;;;;2.00;1.00;;;;;4.97;88.18;99233.75;4996167;28;45268;-72
2021/12/08 08:06:11;;;;;;;;;1.00;1.00;;;;;4.95;87.93;99230.34;4996264;28;45328;-71
2021/12/08 08:08:37;;;;;;;;;2.00;0.25;;;;;4.91;88.08;99220.00;4995800;28;46445;-72
2021/12/08 08:11:21;;;;;;;;;0.00;0.00;;;;;4.87;87.21;99214.03;4995662;28;45331;-72
2021/12/08 08:13:47;;;;;;;;;2.50;0.50;;;;;4.91;86.88;99226.09;4995439;28;45446;-73
2021/12/08 08:16:17;;;;;;;;;0.25;0.25;;;;;4.90;87.52;99228.75;4984256;28;45509;-72
2021/12/08 08:18:49;;;;;;;;;1.00;1.00;;;;;4.86;87.90;99230.56;4975858;28;46211;-72
2021/12/08 08:21:19;;;;;;;;;1.50;1.00;;;;;4.83;87.59;99225.41;4975872;28;45332;-72
2021/12/08 08:23:46;;;;;;;;;2.75;2.00;;;;;4.86;87.97;99222.72;4976121;28;45455;-71
2021/12/08 08:26:12;;;;;;;;;5.00;3.25;;;;;4.87;87.41;99222.69;4975954;28;45351;-71
2021/12/08 08:28:39;;;;;;;;;3.00;1.00;;;;;4.94;87.45;99226.03;4975821;28;45437;-71
2021/12/08 08:31:09;;;;;;;;;40.67;39.00;;;;;4.93;88.12;99233.88;4983365;28;45335;-71
2021/12/08 08:33:37;;;;;;;;;13.33;11.67;;;;;4.98;88.70;99243.31;4995247;28;45471;-71
2021/12/08 08:36:07;;;;;;;;;6.25;2.00;;;;;5.03;87.45;99245.81;4983888;28;45387;-72
2021/12/08 08:38:41;;;;;;;;;3.75;1.00;;;;;5.02;87.49;99238.88;4975853;28;45515;-72
2021/12/08 08:41:16;;;;;;;;;5.00;2.50;;;;;5.04;88.18;99247.53;5004387;28;45248;-72
2021/12/08 08:43:43;;;;;;;;;2.00;2.00;;;;;5.18;87.29;99260.22;5017211;28;45252;-72
2021/12/08 08:46:16;;;;;;;;;1.75;1.25;;;;;5.28;87.24;99266.91;5026408;28;45385;-73
2021/12/08 08:49:04;;;;;;;;;2.25;1.25;;;;;5.43;86.99;99276.09;5036653;28;46505;-72
2021/12/08 08:51:38;;;;;;;;;2.75;0.75;;;;;5.68;85.77;99283.31;5036688;28;45274;-72
2021/12/08 08:54:13;;;;;;;;;3.50;2.00;;;;;5.81;85.73;99291.66;5037163;28;45279;-72
2021/12/08 08:56:45;;;;;;;;;1.25;1.25;;;;;5.91;85.14;99278.31;5037128;28;45438;-71
2021/12/08 08:59:18;;;;;;;;;1.25;1.25;;;;;6.07;83.27;99296.22;5036503;28;46528;-72
2021/12/08 09:01:48;;;;;;;;;1.25;1.00;;;;;6.25;83.43;99302.69;5037654;28;45354;-72
2021/12/08 09:04:25;;;;;;;;;0.00;0.00;;;;;6.44;82.53;99284.72;5040722;28;45527;-73
2021/12/08 09:06:54;;;;;;;;;9.25;7.50;;;;;6.45;82.03;99279.44;5040943;28;45434;-74
2021/12/08 09:09:26;;;;;;;;;2.00;2.00;;;;;6.57;82.19;99293.91;5040180;28;47383;-71
2021/12/08 09:12:12;;;;;;;;;3.25;2.00;;;;;6.57;81.61;99285.22;5040415;28;45401;-70
2021/12/08 09:14:52;;;;;;;;;1.75;1.00;;;;;6.63;81.40;99291.09;5038296;28;45362;-72
2021/12/08 09:17:18;;;;;;;;;2.25;1.00;;;;;6.68;81.56;99295.34;5040610;28;45416;-71
2021/12/08 09:19:48;;;;;;;;;5.75;3.50;;;;;6.71;80.92;99296.13;5040223;28;46218;-72
2021/12/08 09:22:40;;;;;;;;;1.25;1.00;;;;;6.67;81.21;99301.50;5040214;28;45386;-73
2021/12/08 09:25:17;;;;;;;;;3.25;2.00;;;;;6.82;80.75;99308.84;5039832;28;45513;-71
2021/12/08 09:27:52;;;;;;;;;1.50;1.50;;;;;6.82;80.67;99297.53;5038855;28;45507;-71
2021/12/08 09:30:32;;;;;;;;;1.00;1.00;;;;;6.92;80.02;99284.09;5039771;28;46235;-71
2021/12/08 09:33:16;;;;;;;;;2.00;2.00;;;;;7.18;79.06;99295.50;5038801;28;45637;-73
2021/12/08 09:36:03;;;;;;;;;7.25;4.25;;;;;7.31;78.33;99299.44;5040403;28;45626;-72
2021/12/08 09:38:34;;;;;;;;;0.00;0.00;;;;;7.81;77.03;99292.53;5040454;28;45531;-73
2021/12/08 09:41:10;;;;;;;;;3.75;0.75;;;;;8.65;74.33;99274.66;5041678;28;45472;-73
2021/12/08 09:43:51;;;;;;;;;2.00;0.00;;;;;9.42;71.81;99279.44;5040595;28;45926;-73
2021/12/08 09:46:21;;;;;;;;;4.75;1.00;;;;;9.53;70.16;99271.97;5039879;28;45362;-73
2021/12/08 09:48:47;;;;;;;;;3.00;3.00;;;;;9.41;69.13;99256.75;5040163;28;45443;-73
2021/12/08 09:51:17;;;;;;;;;2.25;2.25;;;;;9.48;68.89;99286.22;5039848;28;46736;-73
2021/12/08 09:53:45;;;;;;;;;0.00;0.00;;;;;9.12;69.42;99292.06;5039695;28;45427;-73
2021/12/08 09:56:11;;;;;;;;;2.25;1.50;;;;;8.83;70.64;99297.56;5040140;28;45407;-72
2021/12/08 09:58:38;;;;;;;;;55.33;43.33;;;;;8.45;70.99;99306.88;5039839;28;45249;-72
2021/12/08 10:01:06;;;;;;;;;5.00;2.75;;;;;8.09;71.74;99296.78;5039682;28;46669;-73
2021/12/08 10:03:33;;;;;;;;;2.25;2.00;;;;;8.01;73.05;99307.56;5039796;28;45527;-72
2021/12/08 10:06:00;;;;;;;;;1.75;1.25;;;;;7.88;73.35;99315.00;5039782;28;45188;-73
2021/12/08 10:08:28;;;;;;;;;2.00;2.00;;;;;7.74;74.32;99305.00;5040232;28;45373;-74
2021/12/08 10:10:54;;;;;;;;;5.00;5.00;;;;;7.68;73.66;99302.59;5039330;28;47096;-72
2021/12/08 10:13:20;;;;;;;;;6.50;3.00;;;;;7.56;74.98;99301.25;5038949;28;45468;-72
2021/12/08 10:15:46;;;;;;;;;3.75;2.00;;;;;7.60;74.07;99302.84;5039920;28;45508;-72
2021/12/08 10:18:12;;;;;;;;;3.25;1.75;;;;;7.54;74.83;99289.97;5039654;28;45599;-73
2021/12/08 10:20:40;;;;;;;;;2.00;2.00;;;;;7.29;75.03;99258.50;5039408;28;46695;-72
2021/12/08 10:23:30;;;;;;;;;4.80;1.60;;;;;7.54;74.47;99282.13;5042576;28;45772;-72
2021/12/08 10:25:58;;;;;;;;;3.50;2.00;;;;;7.70;74.54;99297.28;5059681;28;45496;-73
2021/12/08 10:28:43;;;;;;;;;5.25;2.00;;;;;7.73;75.18;99294.59;5059667;28;45333;-72
2021/12/08 10:31:16;;;;;;;;;6.00;4.50;;;;;7.74;74.42;99298.91;5049847;28;46003;-72
2021/12/08 10:33:52;;;;;;;;;3.25;3.25;;;;;7.61;74.05;99294.09;5039173;28;45346;-72
2021/12/08 10:36:45;;;;;;;;;4.00;1.00;;;;;7.51;74.53;99282.22;5039564;28;45344;-72
2021/12/08 10:39:25;;;;;;;;;5.00;4.00;;;;;7.53;75.50;99300.50;5036876;28;45510;-71
2021/12/08 10:41:56;;;;;;;;;3.25;2.00;;;;;7.50;75.79;99310.16;5032385;28;45524;-73
2021/12/08 10:44:26;;;;;;;;;1.00;1.00;;;;;7.52;75.97;99307.47;5036946;28;45477;-72
2021/12/08 10:46:57;;;;;;;;;3.00;1.00;;;;;7.54;75.63;99310.06;5035335;28;45457;-74
2021/12/08 10:54:37;;;;;;;;;0.25;0.25;;;;;7.60;75.90;99307.25;5050465;28;45410;-72
2021/12/08 10:57:20;;;;;;;;;3.00;3.00;;;;;7.66;76.12;99314.88;5039928;28;45621;-73
2021/12/08 10:59:56;;;;;;;;;6.25;4.25;;;;;7.57;75.86;99302.13;5034653;28;45382;-74
2021/12/08 11:02:53;;;;;;;;;2.00;2.00;;;;;7.65;76.03;99321.03;5031980;28;48555;-74
2021/12/08 11:05:24;;;;;;;;;2.00;1.00;;;;;7.61;75.48;99317.66;5030401;28;45441;-70
2021/12/08 11:08:21;;;;;;;;;1.75;1.75;;;;;7.54;75.20;99315.28;5034343;28;45335;-71
2021/12/08 11:10:49;;;;;;;;;5.75;1.25;;;;;7.55;76.16;99324.88;4986381;28;45791;-73
2021/12/08 11:13:19;;;;;;;;;1.50;1.00;;;;;7.50;76.46;99336.34;4991966;28;46543;-73
2021/12/08 11:15:46;;;;;;;;;2.00;2.00;;;;;7.41;77.07;99333.19;4992061;28;45585;-72
2021/12/08 11:18:22;;;;;;;;;4.00;4.00;;;;;7.48;76.79;99337.31;4990711;28;45496;-72
2021/12/08 11:20:47;;;;;;;;;3.50;1.75;;;;;7.46;76.51;99337.38;4992759;28;45586;-72
2021/12/08 11:23:17;;;;;;;;;3.00;2.75;;;;;7.29;76.94;99319.59;4992036;28;46401;-73
2021/12/08 11:25:46;;;;;;;;;4.25;3.00;;;;;7.42;76.77;99341.00;4987596;28;45871;-75
2021/12/08 11:28:30;;;;;;;;;3.75;3.75;;;;;7.16;76.71;99289.50;4991199;28;45540;-74
2021/12/08 11:31:04;;;;;;;;;2.75;2.25;;;;;7.31;77.21;99322.16;4991919;28;45828;-74
2021/12/08 11:33:29;;;;;;;;;2.00;1.00;;;;;7.37;77.34;99326.34;4997966;28;45937;-73
2021/12/08 11:36:19;;;;;;;;;5.00;1.00;;;;;7.45;77.48;99345.25;4998429;28;45813;-70
2021/12/08 11:38:48;;;;;;;;;2.00;2.00;;;;;7.48;77.68;99345.19;4986042;28;45846;-71
2021/12/08 11:41:39;;;;;;;;;3.00;1.75;;;;;7.47;77.58;99346.09;4984460;28;45494;-70
2021/12/08 11:44:13;;;;;;;;;3.00;3.00;;;;;7.51;77.49;99334.59;4972182;28;47313;-72
2021/12/08 11:46:43;;;;;;;;;1.00;1.00;;;;;7.41;77.32;99328.81;4974987;28;45714;-71
2021/12/08 11:49:10;;;;;;;;;2.25;0.00;;;;;7.45;77.33;99340.03;5028038;28;45464;-72
2021/12/08 11:52:02;;;;;;;;;2.00;2.00;;;;;7.50;77.93;99340.75;5045444;28;45709;-69
2021/12/08 11:54:51;;;;;;;;;4.00;3.00;;;;;7.47;77.80;99341.69;5033878;28;47300;-69
2021/12/08 11:57:22;;;;;;;;;5.75;2.75;;;;;7.52;77.39;99335.44;5033993;28;45484;-73
2021/12/08 12:00:05;;;;;;;;;3.00;3.00;;;;;7.56;77.67;99347.53;5033838;28;45703;-75
2021/12/08 12:02:46;;;;;;;;;12.25;7.50;;;;;7.60;77.26;99339.53;5034296;28;45477;-75
2021/12/08 12:05:16;;;;;;;;;3.25;3.25;;;;;7.56;77.43;99337.06;5033514;28;47273;-76
2021/12/08 12:07:42;;;;;;;;;5.75;5.00;;;;;7.58;76.68;99337.84;5033334;28;45584;-75
2021/12/08 12:10:10;;;;;;;;;13.00;9.25;;;;;7.54;77.13;99334.50;5033635;28;45468;-76
2021/12/08 12:12:38;;;;;;;;;8.25;4.25;;;;;7.43;77.51;99316.50;5033964;28;45462;-74
2021/12/08 12:15:05;;;;;;;;;13.75;11.00;;;;;7.56;77.83;99337.91;5033725;28;46470;-75
2021/12/08 12:17:31;;;;;;;;;9.00;6.75;;;;;7.61;77.66;99336.00;5047495;28;45428;-75
2021/12/08 12:20:04;;;;;;;;;15.33;10.67;;;;;7.62;76.84;99323.75;5054145;28;45439;-73
2021/12/08 12:23:07;;;;;;;;;22.33;17.33;;;;;7.67;76.76;99335.78;5036752;28;45817;-74
2021/12/08 12:26:00;;;;;;;;;4.50;4.00;;;;;7.75;77.36;99339.91;5033565;28;46200;-75
2021/12/08 12:28:46;;;;;;;;;13.00;9.50;;;;;7.81;77.51;99337.09;5033213;28;45867;-75
2021/12/08 12:31:24;;;;;;;;;6.25;6.25;;;;;7.83;76.99;99341.38;5023174;28;45478;-74
2021/12/08 12:33:51;;;;;;;;;7.50;7.50;;;;;7.90;77.59;99349.00;5038495;28;45409;-73
2021/12/08 12:36:39;;;;;;;;;6.50;4.50;;;;;7.90;76.71;99334.16;5045801;28;45934;-75
2021/12/08 12:39:12;;;;;;;;;11.75;11.00;;;;;8.08;75.06;99355.41;5051232;28;46258;-76
2021/12/08 12:41:38;;;;;;;;;6.50;5.00;;;;;8.05;75.71;99366.00;5053767;28;45464;-74
2021/12/08 12:44:21;;;;;;;;;9.75;6.75;;;;;8.05;76.26;99377.31;5053661;28;45509;-74
2021/12/08 12:47:09;;;;;;;;;12.50;8.50;;;;;8.07;76.46;99372.88;5039074;28;45825;-74
2021/12/08 12:49:37;;;;;;;;;7.75;5.50;;;;;7.98;76.27;99365.34;5051416;28;45784;-74